Time;durP1;ratioP1;P1;durP2;ratioP2;P2;SDS_P1;SDS_P2;PMS_P1;PMS_P2;Temp;Humidity;BMP_temperature;BMP_pressure;BME280_temperature;BME280_humidity;BME280_pressure;Samples;Min_cycle;Max_cycle;Signal;HPM_P1;HPM_P2
2022/12/17 13:06:52;;;;;;;15.30;11.57;;;1.10;85.90;;;;;;900298;155;27477;-77
2022/12/17 13:09:18;;;;;;;16.97;12.13;;;1.00;85.80;;;;;;919045;151;27786;-76
2022/12/17 13:11:43;;;;;;;16.23;12.20;;;1.00;85.80;;;;;;930758;151;27384;-76
2022/12/17 13:14:16;;;;;;;16.47;10.57;;;0.90;85.80;;;;;;930294;151;27321;-76
2022/12/17 13:16:54;;;;;;;17.20;12.33;;;0.90;85.90;;;;;;932338;151;27354;-77
2022/12/17 13:19:30;;;;;;;16.60;10.77;;;0.90;85.90;;;;;;932713;151;27437;-76
2022/12/17 13:21:56;;;;;;;15.30;11.83;;;0.80;85.90;;;;;;932132;151;27334;-76
2022/12/17 13:24:23;;;;;;;19.40;12.23;;;0.80;85.80;;;;;;931920;150;27327;-75
2022/12/17 13:26:49;;;;;;;16.90;12.50;;;0.80;85.80;;;;;;931935;151;27303;-76
2022/12/17 13:29:23;;;;;;;19.93;13.43;;;0.70;85.90;;;;;;931706;151;27322;-77
2022/12/17 13:31:51;;;;;;;19.13;12.73;;;0.70;86.10;;;;;;928448;151;27426;-76
2022/12/17 13:34:27;;;;;;;20.53;13.60;;;0.70;86.20;;;;;;931634;151;27279;-76
2022/12/17 13:37:12;;;;;;;18.80;14.47;;;0.70;86.40;;;;;;931313;151;27275;-76
2022/12/17 13:39:44;;;;;;;23.40;15.20;;;0.70;86.40;;;;;;932247;151;27249;-77
2022/12/17 13:42:13;;;;;;;19.00;13.13;;;0.70;86.20;;;;;;931657;150;27426;-76
2022/12/17 13:44:40;;;;;;;17.27;12.73;;;0.60;86.20;;;;;;931354;151;27290;-77
2022/12/17 13:47:06;;;;;;;17.33;13.13;;;0.60;86.20;;;;;;932357;151;27275;-76
2022/12/17 13:49:33;;;;;;;18.70;13.47;;;0.60;86.40;;;;;;929708;151;27291;-76
2022/12/17 13:52:00;;;;;;;19.43;14.33;;;0.60;86.50;;;;;;932177;151;27395;-76
2022/12/17 13:54:26;;;;;;;21.77;14.47;;;0.60;86.60;;;;;;931054;151;27426;-76
2022/12/17 13:56:53;;;;;;;19.90;13.57;;;0.60;86.70;;;;;;931796;151;27750;-76
2022/12/17 13:59:19;;;;;;;22.13;15.13;;;0.60;86.70;;;;;;932178;151;27361;-76
2022/12/17 14:01:46;;;;;;;22.63;15.87;;;0.60;86.70;;;;;;936143;150;28264;-76
2022/12/17 14:04:18;;;;;;;22.37;15.30;;;0.60;86.80;;;;;;937030;150;27302;-77
2022/12/17 14:06:45;;;;;;;21.73;14.37;;;0.60;86.80;;;;;;936220;150;27718;-76
2022/12/17 14:09:17;;;;;;;21.97;14.20;;;0.70;86.80;;;;;;936631;150;27388;-76
2022/12/17 14:14:31;;;;;;;16.83;13.77;;;0.60;86.40;;;;;;937204;150;27282;-78
2022/12/17 14:16:58;;;;;;;23.23;14.77;;;0.60;86.00;;;;;;936109;150;27360;-78
2022/12/17 14:19:24;;;;;;;22.33;13.43;;;0.50;85.60;;;;;;937334;150;27357;-78
2022/12/17 14:21:51;;;;;;;19.57;13.57;;;0.50;85.50;;;;;;936218;150;27272;-77
2022/12/17 14:24:18;;;;;;;22.60;14.73;;;0.40;85.50;;;;;;937034;150;27289;-78
2022/12/17 14:26:50;;;;;;;21.03;15.20;;;0.40;85.60;;;;;;936547;150;27319;-78
2022/12/17 14:29:23;;;;;;;23.57;15.43;;;0.30;85.70;;;;;;936875;150;27461;-78
2022/12/17 14:31:55;;;;;;;20.20;15.27;;;0.30;85.70;;;;;;935100;150;27334;-75
2022/12/17 14:34:21;;;;;;;20.93;14.97;;;0.30;86.00;;;;;;935859;150;27271;-75
2022/12/17 14:36:48;;;;;;;24.90;15.37;;;0.20;85.90;;;;;;936909;150;27325;-79
2022/12/17 14:39:17;;;;;;;24.77;15.20;;;0.20;86.00;;;;;;935769;150;27368;-78
2022/12/17 14:44:29;;;;;;;25.50;15.37;;;0.10;86.80;;;;;;935216;150;27411;-77
2022/12/17 14:47:11;;;;;;;22.53;14.73;;;0.10;86.50;;;;;;936082;150;27434;-78
2022/12/17 14:49:37;;;;;;;22.57;14.37;;;0.10;86.60;;;;;;936183;150;27328;-77
2022/12/17 14:52:13;;;;;;;21.77;15.70;;;0.10;86.60;;;;;;934763;150;27416;-76
2022/12/17 14:54:39;;;;;;;23.20;15.23;;;0.10;86.70;;;;;;937067;150;27360;-76
2022/12/17 14:57:06;;;;;;;22.53;15.47;;;0.00;86.70;;;;;;936528;150;27443;-76
2022/12/17 14:59:32;;;;;;;21.70;15.57;;;0.00;86.00;;;;;;934053;150;27304;-76
2022/12/17 15:02:01;;;;;;;21.37;14.90;;;0.00;86.70;;;;;;928730;150;27373;-76
2022/12/17 15:04:28;;;;;;;20.27;13.70;;;0.00;87.20;;;;;;924034;151;27436;-77
2022/12/17 15:06:55;;;;;;;20.30;14.00;;;0.00;86.80;;;;;;925212;151;27358;-76
2022/12/17 15:09:21;;;;;;;22.00;15.13;;;0.00;86.90;;;;;;925314;151;27362;-76
2022/12/17 15:11:48;;;;;;;21.20;14.27;;;0.00;86.90;;;;;;924966;151;27331;-76
2022/12/17 15:14:14;;;;;;;23.50;16.03;;;-0.10;86.90;;;;;;925719;150;27340;-76
2022/12/17 15:16:41;;;;;;;20.77;14.47;;;-0.10;87.00;;;;;;925175;151;27280;-76
2022/12/17 15:19:07;;;;;;;21.07;14.53;;;-0.10;87.00;;;;;;925086;151;27338;-77
2022/12/17 15:21:34;;;;;;;20.90;14.63;;;-0.10;87.10;;;;;;923885;151;27447;-76
2022/12/17 15:24:01;;;;;;;20.17;13.70;;;-0.10;87.00;;;;;;925809;151;27255;-76
2022/12/17 15:26:27;;;;;;;21.10;14.50;;;-0.10;87.00;;;;;;925473;151;28205;-76
2022/12/17 15:28:54;;;;;;;18.43;12.70;;;-0.20;86.90;;;;;;925390;151;27375;-76
2022/12/17 15:31:20;;;;;;;16.40;12.30;;;-0.20;87.00;;;;;;924710;151;27316;-77
2022/12/17 15:33:47;;;;;;;23.03;15.13;;;-0.20;87.20;;;;;;925144;151;27355;-75
2022/12/17 15:36:14;;;;;;;22.83;14.40;;;-0.20;87.30;;;;;;926037;151;28714;-76
2022/12/17 15:38:40;;;;;;;24.93;15.10;;;-0.20;87.40;;;;;;924060;151;27258;-76
2022/12/17 15:43:52;;;;;;;20.03;14.03;;;-0.20;87.40;;;;;;926640;151;27308;-77
2022/12/17 15:46:18;;;;;;;24.33;14.73;;;-0.30;87.50;;;;;;924507;151;27340;-75
2022/12/17 15:48:45;;;;;;;21.40;12.60;;;-0.20;87.60;;;;;;923635;152;28462;-73
2022/12/17 15:51:12;;;;;;;21.83;13.77;;;-0.30;87.60;;;;;;923295;152;27316;-76
2022/12/17 15:53:38;;;;;;;20.03;13.77;;;-0.20;87.70;;;;;;922763;152;27927;-76
2022/12/17 15:56:05;;;;;;;22.83;15.47;;;-0.20;87.80;;;;;;923865;152;27353;-76
2022/12/17 15:58:31;;;;;;;26.13;19.33;;;-0.30;87.80;;;;;;923404;152;27987;-76
2022/12/17 16:00:58;;;;;;;29.53;20.90;;;-0.20;88.00;;;;;;929974;150;27463;-76
2022/12/17 16:03:24;;;;;;;27.80;18.67;;;-0.30;87.80;;;;;;929218;150;27330;-76
2022/12/17 16:05:52;;;;;;;20.30;15.53;;;-0.30;87.90;;;;;;929860;150;27619;-75
2022/12/17 16:08:17;;;;;;;21.67;14.83;;;-0.20;88.70;;;;;;930197;150;27417;-77
2022/12/17 16:10:44;;;;;;;24.57;14.03;;;-0.20;88.00;;;;;;926865;151;27319;-77
2022/12/17 16:13:11;;;;;;;24.80;15.20;;;-0.20;88.20;;;;;;926750;151;27388;-76
2022/12/17 16:15:37;;;;;;;23.73;14.57;;;-0.20;88.10;;;;;;926139;151;27485;-76
2022/12/17 16:18:04;;;;;;;25.03;16.33;;;-0.20;88.10;;;;;;926285;151;27321;-77
2022/12/17 16:20:30;;;;;;;20.27;14.27;;;-0.20;88.00;;;;;;927945;151;27389;-77
2022/12/17 16:22:57;;;;;;;25.57;18.53;;;-0.20;88.00;;;;;;926502;151;27460;-78
2022/12/17 16:25:24;;;;;;;24.70;16.73;;;-0.20;87.90;;;;;;925965;151;27413;-78
2022/12/17 16:27:50;;;;;;;22.23;14.57;;;-0.20;87.90;;;;;;926555;151;27464;-77
2022/12/17 16:30:17;;;;;;;21.90;14.73;;;-0.30;87.80;;;;;;926902;151;27423;-78
2022/12/17 16:32:43;;;;;;;22.90;14.37;;;-0.30;87.80;;;;;;926620;151;27328;-78
2022/12/17 16:35:10;;;;;;;22.80;14.53;;;-0.30;87.70;;;;;;927190;151;27283;-78
2022/12/17 16:37:37;;;;;;;21.23;14.57;;;-0.30;87.60;;;;;;926561;151;27375;-77
2022/12/17 16:40:03;;;;;;;22.03;13.77;;;-0.30;87.50;;;;;;926666;151;27401;-77
2022/12/17 16:42:30;;;;;;;22.00;14.63;;;-0.40;87.50;;;;;;927661;151;27373;-77
2022/12/17 16:44:57;;;;;;;25.90;16.93;;;-0.40;87.60;;;;;;926894;151;27283;-77
2022/12/17 16:47:23;;;;;;;30.97;14.90;;;-0.40;87.70;;;;;;927475;151;27366;-78
2022/12/17 16:49:50;;;;;;;25.57;14.83;;;-0.40;88.00;;;;;;927497;151;27295;-77
2022/12/17 16:52:16;;;;;;;27.17;15.07;;;-0.40;88.90;;;;;;927915;151;27391;-78
2022/12/17 16:54:43;;;;;;;26.10;15.83;;;-0.50;88.10;;;;;;927131;151;27390;-77
2022/12/17 16:57:09;;;;;;;23.00;15.43;;;-0.50;88.10;;;;;;927220;151;27325;-77
2022/12/17 16:59:36;;;;;;;30.53;17.50;;;-0.50;88.00;;;;;;925753;151;27442;-77
2022/12/17 17:02:02;;;;;;;24.83;15.67;;;-0.50;88.10;;;;;;927805;150;27360;-78
2022/12/17 17:04:29;;;;;;;25.43;15.43;;;-0.50;88.20;;;;;;939077;149;27365;-78
2022/12/17 17:06:56;;;;;;;28.90;16.53;;;-0.50;88.30;;;;;;938927;149;27483;-77
2022/12/17 17:09:22;;;;;;;26.43;16.13;;;-0.50;88.40;;;;;;927123;151;27363;-77
2022/12/17 17:11:49;;;;;;;25.90;15.70;;;-0.50;88.40;;;;;;936706;149;27313;-77
2022/12/17 17:14:15;;;;;;;28.43;15.73;;;-0.50;88.40;;;;;;939803;149;27310;-77
2022/12/17 17:16:42;;;;;;;35.93;18.43;;;-0.50;88.40;;;;;;939599;149;27326;-78
2022/12/17 17:19:09;;;;;;;36.17;18.00;;;-0.50;88.40;;;;;;933739;150;27398;-78
2022/12/17 17:21:38;;;;;;;28.77;17.37;;;-0.50;88.30;;;;;;933560;150;27421;-77
2022/12/17 17:24:10;;;;;;;52.23;19.37;;;-0.60;88.20;;;;;;941964;148;27300;-77
2022/12/17 17:26:37;;;;;;;38.47;19.97;;;-0.60;88.30;;;;;;927221;152;27443;-78
2022/12/17 17:29:03;;;;;;;28.47;15.87;;;-0.60;88.30;;;;;;939553;149;27384;-77
2022/12/17 17:31:30;;;;;;;26.73;16.73;;;-0.60;88.30;;;;;;939220;149;27617;-77
2022/12/17 17:33:57;;;;;;;49.47;20.00;;;-0.60;88.30;;;;;;931340;151;27339;-77
2022/12/17 17:36:26;;;;;;;30.93;18.40;;;-0.70;88.30;;;;;;932638;151;27311;-78
2022/12/17 17:38:55;;;;;;;36.30;18.70;;;-0.70;88.20;;;;;;931872;151;27417;-77
2022/12/17 17:41:22;;;;;;;39.53;18.97;;;-0.70;88.00;;;;;;931282;151;27431;-77
2022/12/17 17:43:51;;;;;;;30.50;16.70;;;-0.80;87.80;;;;;;931790;151;27300;-77
2022/12/17 17:46:18;;;;;;;30.43;17.93;;;-0.80;87.80;;;;;;932555;151;27283;-79
2022/12/17 17:48:45;;;;;;;30.17;17.77;;;-0.90;87.80;;;;;;930694;151;27362;-80
2022/12/17 17:51:11;;;;;;;30.83;18.60;;;-0.90;87.90;;;;;;933256;151;27399;-79
2022/12/17 17:53:38;;;;;;;35.30;18.37;;;-0.90;88.00;;;;;;932630;151;27395;-79
2022/12/17 17:56:04;;;;;;;29.17;15.53;;;-1.00;88.90;;;;;;932001;151;27884;-80
2022/12/17 17:58:31;;;;;;;31.60;16.97;;;-1.00;88.30;;;;;;931037;151;27311;-79
2022/12/17 18:00:58;;;;;;;29.10;17.60;;;-1.00;88.40;;;;;;933231;151;27310;-79
2022/12/17 18:03:24;;;;;;;29.73;16.57;;;-1.00;88.30;;;;;;930734;151;27644;-80
2022/12/17 18:05:51;;;;;;;36.80;18.23;;;-1.00;88.50;;;;;;935186;151;27369;-80
2022/12/17 18:08:17;;;;;;;33.33;16.77;;;-1.00;88.60;;;;;;932541;151;27410;-80
2022/12/17 18:10:44;;;;;;;29.30;16.80;;;-1.10;88.50;;;;;;932431;150;27457;-79
2022/12/17 18:16:01;;;;;;;29.27;15.80;;;-1.10;88.50;;;;;;931104;151;27429;-78
2022/12/17 18:18:28;;;;;;;22.30;14.97;;;-1.10;88.40;;;;;;929342;151;27373;-78
2022/12/17 18:21:03;;;;;;;51.23;18.27;;;-1.10;88.50;;;;;;929048;151;27369;-77
2022/12/17 18:23:30;;;;;;;31.07;17.53;;;-1.10;88.60;;;;;;926475;151;27376;-77
2022/12/17 18:25:56;;;;;;;38.03;16.47;;;-1.20;88.40;;;;;;927173;151;27329;-77
2022/12/17 18:28:23;;;;;;;35.53;16.33;;;-1.20;88.40;;;;;;929042;150;27251;-77
2022/12/17 18:30:49;;;;;;;36.27;15.57;;;-1.20;88.40;;;;;;933088;150;27397;-78
2022/12/17 18:33:16;;;;;;;30.63;16.20;;;-1.20;88.50;;;;;;935140;150;27453;-77
2022/12/17 18:35:43;;;;;;;35.33;16.87;;;-1.30;88.20;;;;;;935158;150;27285;-77
2022/12/17 18:38:09;;;;;;;33.70;15.70;;;-1.30;88.00;;;;;;926035;151;27278;-77
2022/12/17 18:40:36;;;;;;;28.80;17.07;;;-1.40;87.60;;;;;;928039;151;27474;-78
2022/12/17 18:45:47;;;;;;;28.23;16.40;;;-1.40;87.30;;;;;;926661;151;27407;-77
2022/12/17 18:48:13;;;;;;;29.20;16.00;;;-1.50;87.10;;;;;;925493;151;27453;-77
2022/12/17 18:50:40;;;;;;;31.53;17.20;;;-1.60;87.10;;;;;;927308;151;27358;-77
2022/12/17 18:53:07;;;;;;;27.63;16.27;;;-1.70;87.10;;;;;;926355;151;27332;-77
2022/12/17 18:55:33;;;;;;;30.03;16.20;;;-1.70;87.40;;;;;;926382;151;27279;-77
2022/12/17 18:58:00;;;;;;;29.07;17.23;;;-1.70;87.60;;;;;;925418;151;27497;-78
2022/12/17 19:00:26;;;;;;;26.37;15.57;;;-1.80;87.80;;;;;;926378;151;27368;-77
2022/12/17 19:02:53;;;;;;;23.60;15.13;;;-1.80;88.10;;;;;;926249;151;27312;-78
2022/12/17 19:05:20;;;;;;;26.93;15.63;;;-1.80;88.40;;;;;;924831;151;27325;-78
2022/12/17 19:07:46;;;;;;;26.63;15.80;;;-1.80;88.30;;;;;;926447;151;27376;-78
2022/12/17 19:10:13;;;;;;;26.80;14.87;;;-1.80;88.30;;;;;;926874;151;28066;-78
2022/12/17 19:12:39;;;;;;;21.90;14.40;;;-1.80;88.30;;;;;;927145;151;27391;-77
2022/12/17 19:15:06;;;;;;;25.00;15.93;;;-1.80;88.20;;;;;;926910;151;27269;-78
2022/12/17 19:17:33;;;;;;;24.80;15.37;;;-1.80;88.10;;;;;;929354;150;27430;-78
2022/12/17 19:19:59;;;;;;;27.23;17.33;;;-1.80;88.00;;;;;;927907;150;27317;-78
2022/12/17 19:22:26;;;;;;;27.00;15.47;;;-1.80;87.90;;;;;;926481;151;27335;-77
2022/12/17 19:24:53;;;;;;;22.77;15.37;;;-1.80;87.80;;;;;;926755;151;27488;-78
2022/12/17 19:27:19;;;;;;;29.60;16.70;;;-1.80;87.80;;;;;;926013;151;27465;-78
2022/12/17 19:29:46;;;;;;;30.13;17.30;;;-1.80;87.80;;;;;;926379;151;27352;-77
2022/12/17 19:32:12;;;;;;;27.90;17.67;;;-1.80;87.80;;;;;;925594;151;27430;-78
2022/12/17 19:34:39;;;;;;;29.73;16.97;;;-1.80;87.80;;;;;;925466;151;27378;-78
2022/12/17 19:37:05;;;;;;;28.87;17.60;;;-1.90;87.70;;;;;;929169;151;27304;-77
2022/12/17 19:39:32;;;;;;;25.20;15.60;;;-1.90;87.90;;;;;;923831;152;27422;-77
2022/12/17 19:41:59;;;;;;;31.57;17.90;;;-1.90;87.90;;;;;;924155;152;27463;-77
2022/12/17 19:44:25;;;;;;;30.93;17.90;;;-1.90;88.00;;;;;;922642;152;27387;-77
2022/12/17 19:46:52;;;;;;;29.07;16.90;;;-1.80;88.10;;;;;;922943;152;27312;-78
2022/12/17 19:49:18;;;;;;;29.47;15.80;;;-1.80;88.20;;;;;;923264;152;27349;-77
2022/12/17 19:51:45;;;;;;;28.93;16.00;;;-1.80;88.20;;;;;;923246;152;27389;-77
2022/12/17 19:54:12;;;;;;;32.27;18.47;;;-1.80;88.20;;;;;;929618;150;27362;-77
2022/12/17 19:56:38;;;;;;;24.83;14.63;;;-1.80;88.20;;;;;;931942;150;27317;-78
2022/12/17 19:59:05;;;;;;;28.63;16.30;;;-1.80;88.10;;;;;;931442;151;27316;-78
2022/12/17 20:01:31;;;;;;;29.40;17.33;;;-1.80;88.10;;;;;;929694;151;27374;-78
2022/12/17 20:03:58;;;;;;;27.10;16.23;;;-1.80;88.00;;;;;;925822;151;27391;-79
2022/12/17 20:06:24;;;;;;;27.67;17.77;;;-1.80;88.00;;;;;;932412;151;27388;-78
2022/12/17 20:08:51;;;;;;;32.07;18.07;;;-1.80;88.10;;;;;;931258;151;27440;-78
2022/12/17 20:11:33;;;;;;;31.93;18.23;;;-1.80;88.10;;;;;;932999;151;27373;-78
2022/12/17 20:14:12;;;;;;;31.33;17.83;;;-1.80;88.10;;;;;;933286;151;27304;-78
2022/12/17 20:16:44;;;;;;;29.20;17.23;;;-1.80;88.10;;;;;;931934;151;27400;-78
2022/12/17 20:19:10;;;;;;;32.07;18.67;;;-1.80;88.10;;;;;;932834;151;27379;-78
2022/12/17 20:21:37;;;;;;;38.50;18.43;;;-1.80;88.20;;;;;;932219;151;28896;-78
2022/12/17 20:24:04;;;;;;;29.50;16.73;;;-1.80;88.30;;;;;;932670;151;27326;-77
2022/12/17 20:26:30;;;;;;;33.30;18.10;;;-1.70;88.30;;;;;;932327;151;27341;-78
2022/12/17 20:28:57;;;;;;;35.03;17.77;;;-1.80;88.30;;;;;;932703;151;27430;-78
2022/12/17 20:31:23;;;;;;;40.43;18.37;;;-1.80;88.20;;;;;;932410;151;27449;-77
2022/12/17 20:33:50;;;;;;;42.07;19.57;;;-1.70;88.20;;;;;;925962;152;27387;-77
2022/12/17 20:36:16;;;;;;;28.90;16.40;;;-1.70;88.20;;;;;;943408;149;27265;-78
2022/12/17 20:38:43;;;;;;;30.40;14.47;;;-1.70;88.10;;;;;;929663;151;27370;-78
2022/12/17 20:41:10;;;;;;;31.67;16.87;;;-1.70;88.10;;;;;;930595;151;27312;-78
2022/12/17 20:43:36;;;;;;;27.17;15.53;;;-1.80;88.10;;;;;;932951;151;27494;-77
2022/12/17 20:46:03;;;;;;;33.63;17.80;;;-1.80;88.10;;;;;;945723;149;27598;-78
2022/12/17 20:48:29;;;;;;;29.53;16.43;;;-1.80;88.00;;;;;;944946;149;27447;-78
2022/12/17 20:50:56;;;;;;;37.63;21.87;;;-1.80;88.00;;;;;;944669;149;27305;-77
2022/12/17 20:53:23;;;;;;;43.63;18.30;;;-1.80;87.90;;;;;;945772;149;27282;-78
2022/12/17 20:55:49;;;;;;;34.13;18.33;;;-1.80;87.80;;;;;;944132;149;27476;-79
2022/12/17 20:58:16;;;;;;;27.50;16.23;;;-1.80;87.80;;;;;;944649;149;27346;-78
2022/12/17 21:00:42;;;;;;;34.70;17.00;;;-1.80;87.80;;;;;;934567;150;27532;-77
2022/12/17 21:03:09;;;;;;;31.93;17.83;;;-1.80;87.90;;;;;;933970;150;27431;-78
2022/12/17 21:05:36;;;;;;;26.63;15.47;;;-1.90;87.90;;;;;;929685;151;27399;-78
2022/12/17 21:08:02;;;;;;;29.70;16.40;;;-1.90;87.80;;;;;;937390;147;27337;-78
2022/12/17 21:10:29;;;;;;;27.47;17.43;;;-1.90;87.70;;;;;;936984;150;27314;-77
2022/12/17 21:15:40;;;;;;;30.93;17.67;;;-1.90;87.80;;;;;;936821;150;27380;-77
2022/12/17 21:18:06;;;;;;;33.37;17.87;;;-2.00;87.80;;;;;;936149;150;27333;-77
2022/12/17 21:20:33;;;;;;;38.03;19.67;;;-2.00;87.70;;;;;;936939;150;28019;-78
2022/12/17 21:23:00;;;;;;;33.17;17.87;;;-2.00;88.10;;;;;;937782;150;27346;-78
2022/12/17 21:25:26;;;;;;;29.13;16.77;;;-2.00;87.70;;;;;;937751;150;27275;-77
2022/12/17 21:27:53;;;;;;;34.93;17.80;;;-2.10;87.60;;;;;;937504;150;27308;-77
2022/12/17 21:30:19;;;;;;;34.33;17.17;;;-2.10;87.50;;;;;;938304;150;27276;-78
2022/12/17 21:32:46;;;;;;;35.30;17.57;;;-2.10;87.40;;;;;;937520;150;27332;-79
2022/12/17 21:35:14;;;;;;;28.30;17.60;;;-2.20;87.20;;;;;;937166;150;27439;-78
2022/12/17 21:37:39;;;;;;;32.97;17.13;;;-2.20;87.20;;;;;;937107;150;27342;-78
2022/12/17 21:40:06;;;;;;;41.00;20.87;;;-2.30;87.10;;;;;;937350;150;27320;-77
2022/12/17 21:45:17;;;;;;;40.13;18.30;;;-2.40;87.00;;;;;;937383;150;27424;-77
2022/12/17 21:47:44;;;;;;;30.23;17.17;;;-2.40;87.10;;;;;;937739;148;27288;-77
2022/12/17 21:50:11;;;;;;;36.17;17.03;;;-2.50;87.20;;;;;;937006;149;27909;-78
2022/12/17 21:52:37;;;;;;;29.90;15.83;;;-2.50;87.40;;;;;;936275;150;27430;-78
2022/12/17 21:55:04;;;;;;;35.97;17.93;;;-2.60;87.50;;;;;;936488;150;27455;-77
2022/12/17 21:57:30;;;;;;;29.73;17.77;;;-2.60;87.70;;;;;;936189;150;27296;-77
2022/12/17 21:59:57;;;;;;;29.37;17.10;;;-2.60;87.70;;;;;;936391;150;27405;-77
2022/12/17 22:02:24;;;;;;;28.00;15.37;;;-2.70;87.70;;;;;;937294;150;27367;-78
2022/12/17 22:04:50;;;;;;;32.73;16.63;;;-2.70;87.80;;;;;;937986;150;27339;-81
2022/12/17 22:07:17;;;;;;;29.50;17.70;;;-2.70;88.00;;;;;;928012;150;27710;-81
2022/12/17 22:09:43;;;;;;;27.80;16.77;;;-2.80;88.10;;;;;;930038;150;27405;-81
2022/12/17 22:14:55;;;;;;;28.50;15.90;;;-2.80;88.40;;;;;;926594;148;27361;-80
2022/12/17 22:17:21;;;;;;;28.40;16.23;;;-2.80;88.60;;;;;;925465;151;27357;-80
2022/12/17 22:19:48;;;;;;;30.43;16.57;;;-2.80;88.60;;;;;;925682;151;27454;-80
2022/12/17 22:22:14;;;;;;;32.60;16.33;;;-2.80;88.90;;;;;;925205;151;27354;-80
2022/12/17 22:24:41;;;;;;;27.67;16.10;;;-2.80;88.50;;;;;;925842;151;27312;-80
2022/12/17 22:27:08;;;;;;;25.30;14.83;;;-2.80;88.50;;;;;;926743;151;27329;-80
2022/12/17 22:35:04;;;;;;;31.40;17.00;;;-2.80;87.80;;;;;;926530;151;27438;-78
2022/12/17 22:37:30;;;;;;;26.27;15.83;;;-2.90;87.50;;;;;;926095;151;27353;-78
2022/12/17 22:39:57;;;;;;;27.43;15.83;;;-2.90;87.30;;;;;;924792;151;27443;-79
2022/12/17 22:45:08;;;;;;;35.40;15.13;;;-3.00;87.10;;;;;;925355;151;27521;-78
2022/12/17 22:47:34;;;;;;;28.37;15.07;;;-3.10;87.00;;;;;;926039;151;27378;-78
2022/12/17 22:50:01;;;;;;;25.13;14.63;;;-3.20;87.00;;;;;;926081;151;27284;-76
2022/12/17 22:52:27;;;;;;;27.80;14.80;;;-3.20;87.10;;;;;;925162;151;27263;-78
2022/12/17 22:54:54;;;;;;;39.17;16.53;;;-3.30;87.10;;;;;;926205;150;27307;-77
2022/12/17 22:57:21;;;;;;;29.27;15.77;;;-3.30;87.20;;;;;;926863;151;27266;-78
2022/12/17 22:59:47;;;;;;;34.93;14.10;;;-3.40;87.20;;;;;;926063;151;27375;-77
2022/12/17 23:02:14;;;;;;;26.37;14.73;;;-3.40;87.40;;;;;;925203;151;27442;-77
2022/12/17 23:04:41;;;;;;;41.67;16.53;;;-3.40;87.60;;;;;;924851;151;27303;-77
2022/12/17 23:07:07;;;;;;;30.20;16.13;;;-3.50;87.60;;;;;;932089;150;27481;-77
2022/12/17 23:09:34;;;;;;;33.23;16.40;;;-3.50;87.80;;;;;;936378;150;27435;-78
2022/12/17 23:12:49;;;;;;;37.60;17.17;;;-3.50;88.00;;;;;;936700;150;27357;-78
2022/12/17 23:14:27;;;;;;;31.17;16.83;;;-3.50;88.20;;;;;;932770;150;27359;-78
2022/12/17 23:16:53;;;;;;;31.43;16.23;;;-3.50;88.20;;;;;;936358;150;27437;-78
2022/12/17 23:19:20;;;;;;;27.67;15.47;;;-3.50;88.10;;;;;;936158;150;27296;-79
2022/12/17 23:21:47;;;;;;;29.00;16.60;;;-3.60;88.00;;;;;;936144;150;27313;-78
2022/12/17 23:24:13;;;;;;;27.83;15.47;;;-3.60;87.80;;;;;;936352;150;27448;-78
2022/12/17 23:26:40;;;;;;;27.27;15.47;;;-3.60;87.90;;;;;;936236;150;27364;-77
2022/12/17 23:29:06;;;;;;;26.33;15.00;;;-3.60;88.00;;;;;;936342;150;27790;-77
2022/12/17 23:31:33;;;;;;;28.60;16.10;;;-3.70;88.00;;;;;;935428;150;27351;-78
2022/12/17 23:34:00;;;;;;;27.53;15.33;;;-3.70;88.00;;;;;;935639;150;27275;-77
2022/12/17 23:36:26;;;;;;;26.90;14.97;;;-3.70;88.10;;;;;;937186;150;27297;-78
2022/12/17 23:38:53;;;;;;;24.10;14.87;;;-3.70;88.00;;;;;;936898;150;27377;-78
2022/12/17 23:41:19;;;;;;;29.67;16.70;;;-3.70;88.00;;;;;;936258;150;27360;-77
2022/12/17 23:43:46;;;;;;;29.03;15.67;;;-3.80;87.80;;;;;;937406;150;27316;-77
2022/12/17 23:46:12;;;;;;;28.33;16.37;;;-3.80;87.80;;;;;;936366;150;27294;-77
2022/12/17 23:48:39;;;;;;;23.83;14.50;;;-3.80;87.50;;;;;;936274;150;27267;-77
2022/12/17 23:51:06;;;;;;;31.83;14.73;;;-3.90;87.40;;;;;;936868;150;27369;-78
2022/12/17 23:53:32;;;;;;;25.83;13.63;;;-3.90;87.10;;;;;;937320;150;27834;-77
2022/12/17 23:56:08;;;;;;;28.37;15.60;;;-4.00;86.70;;;;;;938036;150;27358;-77
2022/12/17 23:58:35;;;;;;;30.60;16.50;;;-4.10;86.50;;;;;;937151;150;27452;-77
